Time;durP1;ratioP1;P1;durP2;ratioP2;P2;SDS_P1;SDS_P2;PMS_P1;PMS_P2;Temp;Humidity;BMP_temperature;BMP_pressure;BME280_temperature;BME280_humidity;BME280_pressure;Samples;Min_cycle;Max_cycle;Signal;HPM_P1;HPM_P2
2024/02/17 00:02:21;;;;;;;2.97;2.77;;;12.50;99.90;;;;;;5026519;28;20454;-64
2024/02/17 00:04:49;;;;;;;3.67;3.37;;;12.50;99.90;;;;;;5028895;28;20453;-64
2024/02/17 00:07:16;;;;;;;3.70;3.40;;;12.50;99.90;;;;;;5030481;28;20453;-65
2024/02/17 00:09:43;;;;;;;3.70;3.40;;;12.50;99.90;;;;;;5030113;28;20450;-64
2024/02/17 00:12:10;;;;;;;6.87;4.23;;;12.50;99.90;;;;;;5032601;28;20451;-64
2024/02/17 00:14:37;;;;;;;3.33;3.13;;;12.50;99.90;;;;;;5030315;28;20483;-64
2024/02/17 00:17:05;;;;;;;3.40;2.90;;;12.50;99.90;;;;;;5030045;28;20545;-64
2024/02/17 00:19:32;;;;;;;4.03;3.83;;;12.50;99.90;;;;;;5029805;28;20572;-62
2024/02/17 00:22:00;;;;;;;3.80;3.60;;;12.50;99.90;;;;;;5023078;28;20446;-65
2024/02/17 00:24:27;;;;;;;4.13;3.77;;;12.50;99.90;;;;;;5028671;28;20452;-64
2024/02/17 00:26:54;;;;;;;4.93;3.67;;;12.50;99.90;;;;;;5035843;28;20450;-65
2024/02/17 00:29:21;;;;;;;3.40;3.20;;;12.50;99.90;;;;;;5022566;28;20466;-64
2024/02/17 00:31:48;;;;;;;4.07;3.77;;;12.50;99.90;;;;;;5032150;28;20464;-65
2024/02/17 00:34:15;;;;;;;2.90;2.67;;;12.50;99.90;;;;;;5038956;28;20450;-62
2024/02/17 00:36:41;;;;;;;3.23;3.00;;;12.50;99.90;;;;;;5025994;28;20450;-64
2024/02/17 00:39:10;;;;;;;4.00;3.70;;;12.60;99.90;;;;;;5029151;28;21094;-64
2024/02/17 00:41:37;;;;;;;3.37;3.07;;;12.50;99.90;;;;;;5029345;28;20806;-64
2024/02/17 00:44:04;;;;;;;3.47;3.17;;;12.50;99.90;;;;;;5029696;28;20456;-64
2024/02/17 00:46:31;;;;;;;4.00;2.83;;;12.50;99.90;;;;;;5029791;28;20462;-64
2024/02/17 00:48:58;;;;;;;4.17;3.70;;;12.50;99.90;;;;;;5029324;28;20488;-64
2024/02/17 00:51:25;;;;;;;3.13;2.90;;;12.50;99.90;;;;;;5028972;28;20449;-63
2024/02/17 00:53:51;;;;;;;5.30;4.03;;;12.50;99.90;;;;;;5029064;28;20458;-64
2024/02/17 00:56:23;;;;;;;3.70;3.40;;;12.50;99.90;;;;;;5033635;28;20449;-64
2024/02/17 00:58:50;;;;;;;4.83;4.27;;;12.40;99.90;;;;;;5037560;28;20497;-63
2024/02/17 01:01:17;;;;;;;4.27;3.87;;;12.40;99.90;;;;;;5029584;28;20446;-64
2024/02/17 01:03:44;;;;;;;5.80;4.40;;;12.40;99.90;;;;;;5024541;28;20454;-64
2024/02/17 01:06:10;;;;;;;4.77;4.20;;;12.40;99.90;;;;;;5029533;28;20570;-64
2024/02/17 01:08:37;;;;;;;9.43;5.23;;;12.30;99.90;;;;;;5036728;28;20466;-64
2024/02/17 01:11:05;;;;;;;5.80;5.20;;;12.30;99.90;;;;;;5029174;28;20452;-64
2024/02/17 01:13:33;;;;;;;6.03;5.40;;;12.30;99.90;;;;;;5028303;28;20485;-64
2024/02/17 01:16:01;;;;;;;6.20;5.60;;;12.30;99.90;;;;;;5028427;28;20447;-64
2024/02/17 01:18:28;;;;;;;8.70;5.73;;;12.30;99.90;;;;;;5028836;28;20487;-64
2024/02/17 01:20:55;;;;;;;5.93;4.80;;;12.30;99.90;;;;;;5029950;28;20450;-64
2024/02/17 01:23:22;;;;;;;6.57;5.03;;;12.30;99.90;;;;;;5040037;28;20480;-64
2024/02/17 01:25:49;;;;;;;5.83;4.90;;;12.20;99.90;;;;;;5029359;28;20505;-64
2024/02/17 01:28:16;;;;;;;5.87;5.27;;;12.30;99.90;;;;;;5036367;28;20528;-64
2024/02/17 01:30:44;;;;;;;6.03;5.43;;;12.20;99.90;;;;;;5028673;28;20834;-65
2024/02/17 01:33:11;;;;;;;7.27;6.03;;;12.20;99.90;;;;;;5028225;28;20453;-64
2024/02/17 01:35:38;;;;;;;5.63;5.03;;;12.20;99.90;;;;;;5024732;28;20445;-64
2024/02/17 01:38:07;;;;;;;7.43;6.30;;;12.20;99.90;;;;;;5036990;28;20481;-64
2024/02/17 01:40:34;;;;;;;8.10;6.50;;;12.10;99.90;;;;;;5035842;28;20496;-65
2024/02/17 01:43:01;;;;;;;7.63;6.03;;;12.10;99.90;;;;;;5032558;28;20458;-64
2024/02/17 01:45:28;;;;;;;7.93;5.70;;;12.10;99.90;;;;;;5026173;28;20449;-64
2024/02/17 01:47:57;;;;;;;6.23;5.60;;;12.10;99.90;;;;;;5028407;28;20474;-64
2024/02/17 01:50:24;;;;;;;6.90;5.50;;;12.10;99.90;;;;;;5024159;28;20448;-64
2024/02/17 01:52:51;;;;;;;9.07;6.63;;;12.10;99.90;;;;;;5027792;28;20568;-64
2024/02/17 01:55:19;;;;;;;8.07;7.27;;;12.10;99.90;;;;;;5028454;28;20460;-64
2024/02/17 01:57:47;;;;;;;8.13;6.20;;;12.10;99.90;;;;;;5028000;28;20477;-65
2024/02/17 02:00:16;;;;;;;7.37;6.10;;;12.10;99.90;;;;;;5024167;28;21031;-64
2024/02/17 02:02:46;;;;;;;10.47;6.93;;;12.10;99.90;;;;;;5022647;28;20896;-65
2024/02/17 02:05:14;;;;;;;7.10;6.10;;;12.10;99.90;;;;;;5028605;28;20450;-64
2024/02/17 02:07:41;;;;;;;9.50;8.50;;;12.00;99.90;;;;;;5028454;28;20484;-64
2024/02/17 02:10:09;;;;;;;9.67;8.13;;;12.00;99.90;;;;;;5028518;28;20533;-65
2024/02/17 02:12:35;;;;;;;11.33;7.87;;;12.00;99.90;;;;;;5027425;28;20446;-64
2024/02/17 02:15:04;;;;;;;9.83;7.83;;;12.00;99.90;;;;;;5027730;28;20493;-64
2024/02/17 02:17:31;;;;;;;10.27;8.30;;;12.00;99.90;;;;;;5027891;28;20519;-65
2024/02/17 02:19:58;;;;;;;11.40;8.30;;;12.00;99.90;;;;;;5028078;28;20576;-64
2024/02/17 02:22:26;;;;;;;11.03;8.50;;;12.00;99.90;;;;;;5027608;28;20531;-64
2024/02/17 02:24:57;;;;;;;11.50;8.57;;;12.00;99.90;;;;;;5028222;28;20500;-65
2024/02/17 02:27:25;;;;;;;9.70;7.93;;;12.00;99.90;;;;;;5028905;28;20584;-65
2024/02/17 02:29:53;;;;;;;10.57;8.50;;;11.90;99.90;;;;;;5028850;28;20482;-64
2024/02/17 02:32:20;;;;;;;10.77;8.33;;;11.90;99.90;;;;;;5028277;28;20460;-65
2024/02/17 02:34:48;;;;;;;10.07;7.83;;;11.90;99.90;;;;;;5028920;28;20930;-64
2024/02/17 02:37:15;;;;;;;12.20;9.50;;;11.90;99.90;;;;;;5028602;28;20460;-64
2024/02/17 02:39:42;;;;;;;10.60;8.20;;;11.90;99.90;;;;;;5028318;28;20493;-64
2024/02/17 02:42:09;;;;;;;9.73;7.60;;;11.90;99.90;;;;;;5028521;28;20543;-64
2024/02/17 02:44:37;;;;;;;13.50;9.73;;;11.90;99.90;;;;;;5028947;28;20536;-64
2024/02/17 02:47:04;;;;;;;12.93;10.27;;;11.80;99.90;;;;;;5028683;28;20540;-64
2024/02/17 02:49:31;;;;;;;12.83;9.90;;;11.80;99.90;;;;;;5028570;28;20533;-64
2024/02/17 02:51:58;;;;;;;12.57;9.73;;;11.80;99.90;;;;;;5028047;28;20454;-64
2024/02/17 02:54:25;;;;;;;15.23;11.47;;;11.80;99.90;;;;;;5028457;28;20541;-64
2024/02/17 02:56:52;;;;;;;18.47;10.10;;;11.80;99.90;;;;;;5028560;28;20457;-64
2024/02/17 02:59:19;;;;;;;9.10;7.50;;;11.80;99.90;;;;;;5028256;28;20945;-64
2024/02/17 03:01:47;;;;;;;12.60;9.77;;;11.80;99.90;;;;;;5027779;28;20455;-64
2024/02/17 03:04:14;;;;;;;13.10;10.13;;;11.70;99.90;;;;;;5028411;28;20556;-64
2024/02/17 03:06:41;;;;;;;11.47;8.60;;;11.70;99.90;;;;;;5028253;28;20552;-64
2024/02/17 03:09:08;;;;;;;11.07;9.50;;;11.70;99.90;;;;;;5028396;28;20501;-64
2024/02/17 03:11:35;;;;;;;11.97;10.03;;;11.70;99.90;;;;;;5028100;28;20445;-64
2024/02/17 03:14:01;;;;;;;11.07;9.27;;;11.60;99.90;;;;;;5028550;28;20481;-64
2024/02/17 03:16:29;;;;;;;10.80;9.40;;;11.60;99.90;;;;;;5028590;28;20499;-64
2024/02/17 03:18:57;;;;;;;12.70;8.90;;;11.50;99.90;;;;;;5028194;28;20483;-64
2024/02/17 03:21:24;;;;;;;11.77;8.80;;;11.50;99.90;;;;;;5027768;28;20464;-64
2024/02/17 03:23:51;;;;;;;11.70;10.30;;;11.40;99.90;;;;;;5028334;28;20840;-64
2024/02/17 03:26:18;;;;;;;12.07;9.47;;;11.40;99.90;;;;;;5028249;28;20541;-64
2024/02/17 03:28:45;;;;;;;12.33;8.40;;;11.30;99.90;;;;;;5027879;28;20508;-64
2024/02/17 03:31:12;;;;;;;12.00;8.37;;;11.20;99.90;;;;;;5028321;28;20477;-64
2024/02/17 03:33:39;;;;;;;13.10;8.00;;;11.20;99.90;;;;;;5027644;28;20519;-64
2024/02/17 03:36:07;;;;;;;11.83;7.60;;;11.10;99.90;;;;;;5028153;28;20481;-64
2024/02/17 03:38:34;;;;;;;9.70;7.80;;;11.00;99.90;;;;;;5028149;28;20600;-64
2024/02/17 03:41:01;;;;;;;10.80;7.73;;;10.90;99.90;;;;;;5031892;28;20572;-64
2024/02/17 03:43:28;;;;;;;9.37;6.80;;;10.70;99.90;;;;;;5031422;28;20449;-64
2024/02/17 03:45:55;;;;;;;9.10;7.30;;;10.60;99.90;;;;;;5031993;28;20448;-64
2024/02/17 03:48:22;;;;;;;9.10;7.10;;;10.50;99.90;;;;;;5031959;28;20547;-64
2024/02/17 03:50:50;;;;;;;11.17;8.63;;;10.30;99.90;;;;;;5032027;28;20437;-64
2024/02/17 03:53:19;;;;;;;8.50;6.80;;;10.20;99.90;;;;;;5031610;28;20453;-64
2024/02/17 03:55:47;;;;;;;9.50;7.53;;;10.00;99.90;;;;;;5029527;28;20509;-64
2024/02/17 03:58:13;;;;;;;10.43;7.10;;;9.90;99.90;;;;;;5028419;28;21017;-64
2024/02/17 04:00:40;;;;;;;12.03;8.73;;;9.70;99.90;;;;;;5031180;28;20478;-64
2024/02/17 04:03:07;;;;;;;10.03;7.93;;;9.60;99.90;;;;;;5031185;28;20540;-64
2024/02/17 04:05:36;;;;;;;9.60;7.33;;;9.50;99.90;;;;;;5031421;28;20974;-64
2024/02/17 04:08:03;;;;;;;10.10;7.53;;;9.40;99.90;;;;;;5031538;28;20572;-64
2024/02/17 04:10:32;;;;;;;10.57;9.03;;;9.30;99.90;;;;;;5031439;28;20993;-64
2024/02/17 04:12:59;;;;;;;10.50;7.00;;;9.20;99.90;;;;;;5030912;28;20531;-64
2024/02/17 04:15:26;;;;;;;10.00;8.07;;;9.10;99.90;;;;;;5031222;28;20980;-64
2024/02/17 04:17:54;;;;;;;11.23;7.87;;;9.00;99.90;;;;;;5031491;28;20531;-64
2024/02/17 04:20:21;;;;;;;11.50;7.83;;;9.00;99.90;;;;;;5031538;28;20575;-64
2024/02/17 04:22:48;;;;;;;8.57;7.65;;;9.00;99.90;;;;;;5030688;28;20544;-64
2024/02/17 04:25:15;;;;;;;10.80;8.47;;;8.90;99.90;;;;;;5031025;28;20280;-64
2024/02/17 04:27:43;;;;;;;13.53;8.50;;;8.90;99.90;;;;;;5030843;28;20560;-64
2024/02/17 04:30:11;;;;;;;9.55;7.38;;;8.90;99.90;;;;;;5030930;28;20544;-64
2024/02/17 04:32:38;;;;;;;10.53;8.33;;;8.90;99.90;;;;;;5030645;28;20698;-64
2024/02/17 04:35:08;;;;;;;15.05;9.00;;;9.00;99.90;;;;;;5028249;28;20524;-64
2024/02/17 04:37:34;;;;;;;12.03;9.60;;;9.00;99.90;;;;;;5054112;22;20688;-60
2024/02/17 04:40:02;;;;;;;11.77;10.57;;;9.10;99.90;;;;;;5030483;28;20532;-59
2024/02/17 04:42:29;;;;;;;22.33;12.50;;;9.00;99.90;;;;;;5030164;28;20453;-59
2024/02/17 04:44:57;;;;;;;19.47;13.03;;;9.10;99.90;;;;;;5030873;28;20210;-60
2024/02/17 04:47:24;;;;;;;22.00;15.23;;;9.20;99.90;;;;;;5030834;28;20460;-59
2024/02/17 04:49:51;;;;;;;19.40;14.83;;;9.30;99.90;;;;;;5030125;28;20588;-59
2024/02/17 04:52:18;;;;;;;25.30;15.10;;;9.40;99.90;;;;;;5029545;28;20457;-58
2024/02/17 04:54:45;;;;;;;17.03;12.77;;;9.50;99.90;;;;;;5031047;28;20460;-58
2024/02/17 04:57:12;;;;;;;20.30;14.17;;;9.50;99.90;;;;;;5030837;28;20901;-59
2024/02/17 04:59:38;;;;;;;19.50;13.50;;;9.60;99.90;;;;;;5030242;28;20937;-60
2024/02/17 05:02:07;;;;;;;22.93;16.50;;;9.60;99.90;;;;;;5030074;28;20449;-58
2024/02/17 05:04:33;;;;;;;17.40;14.10;;;9.60;99.90;;;;;;5030397;28;21043;-59
2024/02/17 05:07:00;;;;;;;19.03;13.43;;;9.60;99.90;;;;;;5030619;28;20453;-59
2024/02/17 05:09:27;;;;;;;21.80;13.77;;;9.60;99.90;;;;;;5030300;28;20599;-59
2024/02/17 05:11:55;;;;;;;24.10;14.00;;;9.60;99.90;;;;;;5029729;28;20456;-61
2024/02/17 05:14:22;;;;;;;18.07;12.70;;;9.60;99.90;;;;;;5030163;28;20453;-61
2024/02/17 05:16:49;;;;;;;13.47;9.87;;;9.60;99.90;;;;;;5030275;28;20446;-59
2024/02/17 05:19:18;;;;;;;14.20;9.20;;;9.50;99.90;;;;;;5029953;28;20564;-61
2024/02/17 05:21:45;;;;;;;14.73;10.20;;;9.40;99.90;;;;;;5029814;28;20492;-59
2024/02/17 05:24:12;;;;;;;13.23;9.10;;;9.30;99.90;;;;;;5030277;28;20828;-61
2024/02/17 05:26:40;;;;;;;14.88;9.18;;;9.20;99.90;;;;;;5029867;28;20458;-60
2024/02/17 05:29:07;;;;;;;12.90;9.80;;;9.00;99.90;;;;;;5029977;28;20227;-61
2024/02/17 05:31:36;;;;;;;12.35;10.27;;;9.00;99.90;;;;;;5029494;28;20842;-61
2024/02/17 05:34:03;;;;;;;13.27;9.60;;;8.80;99.90;;;;;;5030106;28;20217;-60
2024/02/17 05:36:32;;;;;;;11.00;8.77;;;8.70;99.90;;;;;;5030032;28;20826;-57
2024/02/17 05:38:59;;;;;;;10.03;7.53;;;8.60;99.90;;;;;;5029479;28;20504;-59
2024/02/17 05:41:26;;;;;;;13.40;9.82;;;8.50;99.90;;;;;;5029269;28;20585;-61
2024/02/17 05:43:53;;;;;;;16.05;8.75;;;8.30;99.90;;;;;;5029750;28;20218;-62
2024/02/17 05:46:21;;;;;;;11.70;9.95;;;8.30;99.90;;;;;;5029663;28;20261;-61
2024/02/17 05:48:48;;;;;;;11.32;8.65;;;8.20;99.90;;;;;;5029618;28;20246;-60
2024/02/17 05:51:15;;;;;;;11.70;8.23;;;8.10;99.90;;;;;;5029723;28;20253;-58
2024/02/17 05:53:44;;;;;;;12.52;10.02;;;8.00;99.90;;;;;;5029158;28;20215;-60
2024/02/17 05:56:10;;;;;;;12.65;9.27;;;7.90;99.90;;;;;;5029611;28;20225;-58
2024/02/17 05:58:37;;;;;;;12.50;8.82;;;7.90;99.90;;;;;;5029304;28;20262;-59
2024/02/17 06:01:04;;;;;;;10.27;9.07;;;7.80;99.90;;;;;;5029798;28;20245;-61
2024/02/17 06:03:32;;;;;;;10.38;9.20;;;7.70;99.90;;;;;;5028978;28;20614;-58
2024/02/17 06:05:59;;;;;;;13.10;8.73;;;7.60;99.90;;;;;;5029520;28;20221;-59
2024/02/17 06:08:26;;;;;;;13.50;10.07;;;7.50;99.90;;;;;;5029693;28;20234;-58
2024/02/17 06:10:54;;;;;;;11.32;8.45;;;7.50;99.90;;;;;;5028953;28;20297;-61
2024/02/17 06:13:23;;;;;;;8.85;7.80;;;7.40;99.90;;;;;;5028553;28;20308;-60
2024/02/17 06:15:50;;;;;;;13.02;9.35;;;7.30;99.90;;;;;;5029331;28;20284;-61
2024/02/17 06:21:20;;;;;;;14.35;8.40;;;7.20;99.90;;;;;;5029030;28;20308;-61
2024/02/17 06:23:47;;;;;;;11.27;8.48;;;7.10;99.90;;;;;;5028270;28;20836;-60
2024/02/17 06:26:25;;;;;;;11.38;9.20;;;7.10;99.90;;;;;;5028956;28;20696;-59
2024/02/17 06:28:53;;;;;;;10.65;9.13;;;7.00;99.90;;;;;;5028976;28;20237;-60
2024/02/17 06:31:21;;;;;;;11.90;9.02;;;6.90;99.90;;;;;;5029201;28;20305;-57
2024/02/17 06:33:48;;;;;;;11.73;9.20;;;6.90;99.90;;;;;;5028684;28;20264;-59
2024/02/17 06:36:15;;;;;;;13.80;10.85;;;6.90;99.90;;;;;;5028973;28;20304;-59
2024/02/17 06:38:42;;;;;;;9.65;8.65;;;6.80;99.90;;;;;;5028441;28;20242;-62
2024/02/17 06:41:10;;;;;;;14.55;9.68;;;6.70;99.90;;;;;;5028936;28;20237;-59
2024/02/17 06:43:39;;;;;;;16.60;11.00;;;6.70;99.90;;;;;;5028378;28;20782;-61
2024/02/17 06:46:06;;;;;;;15.00;10.77;;;6.70;99.90;;;;;;5028733;28;20306;-60
2024/02/17 06:48:34;;;;;;;15.90;10.45;;;6.60;99.90;;;;;;5028287;28;20234;-60
2024/02/17 06:51:02;;;;;;;14.82;10.63;;;6.60;99.90;;;;;;5028427;28;20214;-59
2024/02/17 06:53:28;;;;;;;15.00;11.35;;;6.50;99.90;;;;;;5027865;28;20682;-60
2024/02/17 06:55:55;;;;;;;12.75;10.38;;;6.50;99.90;;;;;;5028662;28;20213;-60
2024/02/17 06:58:22;;;;;;;14.48;10.05;;;6.50;99.90;;;;;;5028407;28;20230;-60
2024/02/17 07:00:50;;;;;;;16.40;11.50;;;6.40;99.90;;;;;;5028371;28;20234;-60
2024/02/17 07:03:17;;;;;;;10.60;9.50;;;6.40;99.90;;;;;;5027964;28;20229;-57
2024/02/17 07:05:44;;;;;;;12.15;10.23;;;6.40;99.90;;;;;;5028776;28;20214;-61
2024/02/17 07:08:11;;;;;;;14.02;9.98;;;6.40;99.90;;;;;;5028590;28;20325;-59
2024/02/17 07:10:38;;;;;;;15.60;10.10;;;6.40;99.90;;;;;;5028534;28;20639;-61
2024/02/17 07:13:06;;;;;;;15.30;9.90;;;6.40;99.90;;;;;;5028183;28;20645;-59
2024/02/17 07:15:33;;;;;;;16.67;11.90;;;6.40;99.90;;;;;;5032087;28;20246;-60
2024/02/17 07:18:03;;;;;;;13.48;10.00;;;6.40;99.90;;;;;;5032273;28;20235;-60
2024/02/17 07:20:30;;;;;;;15.00;10.10;;;6.40;99.90;;;;;;5032116;28;20227;-59
2024/02/17 07:22:57;;;;;;;17.30;10.70;;;6.40;99.90;;;;;;5032006;28;20219;-60
2024/02/17 07:25:24;;;;;;;14.57;11.52;;;6.40;99.90;;;;;;5032222;28;20220;-60
2024/02/17 07:27:51;;;;;;;15.30;10.63;;;6.30;99.90;;;;;;5032245;28;20321;-60
2024/02/17 07:30:18;;;;;;;13.38;9.27;;;6.40;99.90;;;;;;5031979;28;20221;-59
2024/02/17 07:32:45;;;;;;;13.35;11.30;;;6.40;99.90;;;;;;5031887;28;20214;-60
2024/02/17 07:35:13;;;;;;;18.35;11.00;;;6.40;99.90;;;;;;5032363;28;20218;-59
2024/02/17 07:37:40;;;;;;;15.70;10.35;;;6.40;99.90;;;;;;5032084;28;20242;-61
2024/02/17 07:40:08;;;;;;;15.30;12.13;;;6.40;99.90;;;;;;5032149;28;20239;-60
2024/02/17 07:42:36;;;;;;;14.70;10.05;;;6.40;99.90;;;;;;5031703;28;20240;-59
2024/02/17 07:45:03;;;;;;;16.13;12.23;;;6.50;99.90;;;;;;5031965;28;20215;-60
2024/02/17 07:47:32;;;;;;;12.02;9.00;;;6.50;99.90;;;;;;5031284;28;20207;-58
2024/02/17 07:49:59;;;;;;;17.30;11.07;;;6.40;99.90;;;;;;5031397;28;20561;-60
2024/02/17 07:52:27;;;;;;;13.82;10.60;;;6.50;99.90;;;;;;5031412;28;20865;-60
2024/02/17 07:54:54;;;;;;;25.23;13.23;;;6.50;99.90;;;;;;5028345;28;20214;-61
2024/02/17 07:57:21;;;;;;;18.30;12.20;;;6.50;99.90;;;;;;5031576;28;20750;-61
2024/02/17 07:59:48;;;;;;;17.98;12.43;;;6.50;99.90;;;;;;5031743;28;20322;-58
2024/02/17 08:02:15;;;;;;;17.23;14.57;;;6.60;99.90;;;;;;5031013;28;20235;-61
2024/02/17 08:04:42;;;;;;;15.85;11.30;;;6.60;99.90;;;;;;5031775;28;20217;-60
2024/02/17 08:07:09;;;;;;;17.45;11.85;;;6.60;99.90;;;;;;5031548;28;20207;-59
2024/02/17 08:09:38;;;;;;;16.35;13.75;;;6.70;99.90;;;;;;5031135;28;20222;-58
2024/02/17 08:12:05;;;;;;;15.07;11.68;;;6.70;99.90;;;;;;5030890;28;20261;-59
2024/02/17 08:14:32;;;;;;;22.75;14.80;;;6.70;99.90;;;;;;5031825;28;20242;-61
2024/02/17 08:16:59;;;;;;;20.50;13.00;;;6.80;99.90;;;;;;5031161;28;20207;-61
2024/02/17 08:19:26;;;;;;;18.02;13.07;;;6.90;99.90;;;;;;5031154;28;20653;-59
2024/02/17 08:21:53;;;;;;;17.23;11.73;;;7.00;99.90;;;;;;5030646;28;20669;-60
2024/02/17 08:24:20;;;;;;;16.60;13.43;;;7.10;99.90;;;;;;5031144;28;20590;-61
2024/02/17 08:26:48;;;;;;;16.88;13.77;;;7.30;99.90;;;;;;5031049;28;20215;-59
2024/02/17 08:29:15;;;;;;;22.23;13.70;;;7.50;99.90;;;;;;5031106;28;20241;-61
2024/02/17 08:31:48;;;;;;;19.73;13.77;;;7.60;99.90;;;;;;5030780;28;20215;-61
2024/02/17 08:34:15;;;;;;;19.15;13.82;;;7.80;99.90;;;;;;5031045;28;20211;-60
2024/02/17 08:36:42;;;;;;;27.50;16.85;;;8.10;99.90;;;;;;5030978;28;20219;-60
2024/02/17 08:39:09;;;;;;;28.20;16.73;;;8.30;99.90;;;;;;5030570;28;20337;-61
2024/02/17 08:41:36;;;;;;;29.17;18.27;;;8.60;99.90;;;;;;5030557;28;20572;-58
2024/02/17 08:44:05;;;;;;;33.90;16.42;;;8.90;99.90;;;;;;5030898;28;20302;-61
2024/02/17 08:46:31;;;;;;;24.70;16.67;;;9.10;99.90;;;;;;5031120;28;20215;-62
2024/02/17 08:48:58;;;;;;;26.40;18.00;;;9.30;99.90;;;;;;5031152;28;20995;-59
2024/02/17 08:51:25;;;;;;;22.80;17.57;;;9.60;99.90;;;;;;5030292;28;20442;-60
2024/02/17 08:53:53;;;;;;;22.27;18.23;;;9.80;99.90;;;;;;5030572;28;20990;-58
2024/02/17 08:56:20;;;;;;;24.73;17.60;;;10.00;99.90;;;;;;5030534;28;20457;-59
2024/02/17 08:58:47;;;;;;;20.63;14.70;;;10.20;99.90;;;;;;5030220;28;20482;-60
2024/02/17 09:01:15;;;;;;;18.50;13.70;;;10.40;99.90;;;;;;5030836;28;20512;-61
2024/02/17 09:03:44;;;;;;;17.47;13.63;;;10.60;99.90;;;;;;5028257;28;21022;-60
2024/02/17 09:06:11;;;;;;;19.00;14.23;;;10.70;99.90;;;;;;5027366;28;21008;-61
2024/02/17 09:08:38;;;;;;;20.00;13.27;;;10.80;99.90;;;;;;5026727;28;20589;-61
2024/02/17 09:11:05;;;;;;;15.87;11.80;;;11.00;99.90;;;;;;5028551;28;20445;-61
2024/02/17 09:13:32;;;;;;;13.27;11.87;;;11.10;99.90;;;;;;5029426;28;20799;-62
2024/02/17 09:15:59;;;;;;;17.37;13.60;;;11.20;99.90;;;;;;5029961;28;20481;-62
2024/02/17 09:18:27;;;;;;;18.83;14.00;;;11.30;99.90;;;;;;5029873;28;20544;-60
2024/02/17 09:20:54;;;;;;;16.20;12.40;;;11.50;99.90;;;;;;5014037;28;20447;-62
2024/02/17 09:23:21;;;;;;;12.03;10.53;;;11.50;99.90;;;;;;5026578;28;20489;-61
2024/02/17 09:25:47;;;;;;;15.03;12.30;;;11.60;99.90;;;;;;5022858;28;20832;-62
2024/02/17 09:28:14;;;;;;;12.40;11.10;;;11.70;99.90;;;;;;5025302;28;20477;-62
2024/02/17 09:30:41;;;;;;;13.83;10.13;;;11.70;99.90;;;;;;5029291;28;20450;-61
2024/02/17 09:33:08;;;;;;;14.37;11.00;;;11.70;99.90;;;;;;5026153;28;20456;-59
2024/02/17 09:35:36;;;;;;;15.80;11.37;;;11.70;99.90;;;;;;5024182;28;21262;-60
2024/02/17 09:38:03;;;;;;;13.37;10.40;;;11.80;99.90;;;;;;5026659;28;20485;-59
2024/02/17 09:40:30;;;;;;;12.90;10.37;;;11.90;99.90;;;;;;5028983;28;20556;-60
2024/02/17 09:42:57;;;;;;;12.77;11.40;;;11.90;99.90;;;;;;5023978;28;21022;-61
2024/02/17 09:45:26;;;;;;;10.50;9.40;;;12.00;99.90;;;;;;5029130;28;20442;-60
2024/02/17 09:47:56;;;;;;;11.43;9.93;;;12.10;99.90;;;;;;5022153;28;21007;-59
2024/02/17 09:50:23;;;;;;;10.57;9.50;;;12.20;99.90;;;;;;5015345;28;20447;-61
2024/02/17 09:52:53;;;;;;;12.63;10.80;;;12.30;99.90;;;;;;5023501;28;20450;-61
2024/02/17 09:55:21;;;;;;;11.17;9.50;;;12.40;99.90;;;;;;5021245;28;20826;-61
2024/02/17 09:57:48;;;;;;;12.90;9.57;;;12.50;99.90;;;;;;5027408;28;20482;-61
2024/02/17 10:00:15;;;;;;;11.87;9.63;;;12.60;99.90;;;;;;5023048;28;20452;-61
2024/02/17 10:02:43;;;;;;;12.83;9.67;;;12.80;99.90;;;;;;5019521;28;20490;-60
2024/02/17 10:05:10;;;;;;;10.53;8.70;;;12.90;99.90;;;;;;5028233;28;20453;-60
2024/02/17 10:07:48;;;;;;;11.20;9.57;;;12.90;99.90;;;;;;5027888;28;20462;-61
2024/02/17 10:10:18;;;;;;;10.87;9.70;;;12.90;99.90;;;;;;5018554;28;20831;-61
2024/02/17 10:12:53;;;;;;;13.50;11.60;;;12.80;99.90;;;;;;5022938;28;20584;-61
2024/02/17 10:15:21;;;;;;;11.17;9.13;;;12.80;99.90;;;;;;5028989;28;20441;-60
2024/02/17 10:17:49;;;;;;;9.17;8.27;;;12.70;99.90;;;;;;5024472;28;20568;-61
2024/02/17 10:20:16;;;;;;;11.27;9.53;;;12.70;99.90;;;;;;5019568;28;20456;-61
2024/02/17 10:22:43;;;;;;;11.47;9.80;;;12.60;99.90;;;;;;5027426;28;20579;-61
2024/02/17 10:25:11;;;;;;;10.80;9.13;;;12.60;99.90;;;;;;5021279;28;20454;-60
2024/02/17 10:27:41;;;;;;;11.30;8.50;;;12.60;99.90;;;;;;5023025;28;20495;-60
2024/02/17 10:30:09;;;;;;;10.07;9.00;;;12.70;99.90;;;;;;5028463;28;20453;-60
2024/02/17 10:32:36;;;;;;;11.73;10.63;;;12.90;99.90;;;;;;5027260;28;20829;-60
2024/02/17 10:35:05;;;;;;;11.57;9.00;;;13.00;99.90;;;;;;5019200;28;20455;-59
2024/02/17 10:37:32;;;;;;;10.60;9.23;;;13.00;99.90;;;;;;5024045;28;20453;-60
2024/02/17 10:40:01;;;;;;;9.97;8.93;;;13.10;99.90;;;;;;5065529;22;20509;-63
2024/02/17 10:42:28;;;;;;;10.10;8.43;;;13.40;99.90;;;;;;5048044;28;20913;-64
2024/02/17 10:44:58;;;;;;;10.33;8.43;;;13.60;99.90;;;;;;5051968;28;20448;-63
2024/02/17 10:47:27;;;;;;;15.30;10.13;;;13.80;99.90;;;;;;5045270;28;20549;-63
2024/02/17 10:50:03;;;;;;;9.53;8.83;;;13.90;99.90;;;;;;5052310;28;20554;-62
2024/02/17 10:52:33;;;;;;;7.80;7.00;;;14.00;99.90;;;;;;5058455;28;20475;-62
2024/02/17 10:55:06;;;;;;;10.20;7.93;;;13.90;99.90;;;;;;5068585;28;20821;-63
2024/02/17 10:57:40;;;;;;;9.97;8.97;;;13.90;99.90;;;;;;5058679;28;20465;-63
2024/02/17 11:00:11;;;;;;;9.53;7.63;;;13.80;99.90;;;;;;5060346;28;20472;-63
2024/02/17 11:02:38;;;;;;;9.00;7.90;;;13.80;99.90;;;;;;5057200;28;20998;-63
2024/02/17 11:05:05;;;;;;;11.90;8.47;;;13.70;99.90;;;;;;5063806;28;20930;-63
2024/02/17 11:07:32;;;;;;;8.33;7.63;;;13.80;99.90;;;;;;5056157;28;20555;-63
2024/02/17 11:10:06;;;;;;;8.30;7.50;;;13.80;99.90;;;;;;5047671;28;20473;-63
2024/02/17 11:12:35;;;;;;;7.90;7.07;;;13.80;99.90;;;;;;5059049;28;20444;-63
2024/02/17 11:15:03;;;;;;;7.60;6.90;;;13.90;99.90;;;;;;5060970;28;20895;-63
2024/02/17 11:17:37;;;;;;;6.83;6.13;;;14.10;99.90;;;;;;5053710;28;20535;-64
2024/02/17 11:20:11;;;;;;;8.00;7.27;;;14.20;99.90;;;;;;5052360;28;20498;-63
2024/02/17 11:22:38;;;;;;;8.03;7.20;;;14.30;99.90;;;;;;5049092;28;20583;-63
2024/02/17 11:25:07;;;;;;;7.77;6.97;;;14.40;99.90;;;;;;5052129;28;20857;-63
2024/02/17 11:27:35;;;;;;;6.87;6.17;;;14.40;99.90;;;;;;5067326;28;20448;-63
2024/02/17 11:30:03;;;;;;;7.33;6.00;;;14.30;99.90;;;;;;5068619;28;20560;-63
2024/02/17 11:32:30;;;;;;;8.47;6.40;;;14.20;99.90;;;;;;5066807;28;20535;-63
2024/02/17 11:35:00;;;;;;;5.97;5.47;;;14.30;99.90;;;;;;5067578;28;20541;-62
2024/02/17 11:37:29;;;;;;;7.90;6.50;;;14.30;99.90;;;;;;5067283;28;20456;-63
2024/02/17 11:39:56;;;;;;;5.90;4.93;;;14.20;99.90;;;;;;5066940;28;20479;-63
2024/02/17 11:42:24;;;;;;;6.40;5.80;;;14.20;99.90;;;;;;5057876;28;20494;-63
2024/02/17 11:44:53;;;;;;;6.47;5.97;;;14.30;99.90;;;;;;5062690;28;20630;-64
2024/02/17 11:47:20;;;;;;;6.00;5.40;;;14.30;99.90;;;;;;5053780;28;20447;-63
2024/02/17 11:49:48;;;;;;;6.13;5.50;;;14.30;99.90;;;;;;5062933;28;21001;-62
2024/02/17 11:52:17;;;;;;;6.40;5.80;;;14.30;99.90;;;;;;5055261;28;20452;-63
2024/02/17 11:54:44;;;;;;;7.20;6.03;;;14.30;99.90;;;;;;5065373;28;20548;-62
2024/02/17 11:57:17;;;;;;;5.50;5.00;;;14.30;99.90;;;;;;5060433;28;20484;-63
2024/02/17 11:59:45;;;;;;;8.53;6.43;;;14.40;99.90;;;;;;5070925;28;20463;-63
2024/02/17 12:02:12;;;;;;;6.70;6.13;;;14.40;99.90;;;;;;5074809;28;21034;-63
2024/02/17 12:04:40;;;;;;;5.30;4.80;;;14.50;99.90;;;;;;5073414;28;20450;-63
2024/02/17 12:07:07;;;;;;;5.93;5.43;;;14.60;99.90;;;;;;5068614;28;20539;-63
2024/02/17 12:09:36;;;;;;;6.40;5.80;;;14.70;99.90;;;;;;5070494;28;20471;-63
2024/02/17 12:12:04;;;;;;;6.80;6.20;;;14.80;99.90;;;;;;5077390;28;20483;-63
2024/02/17 12:14:31;;;;;;;6.83;6.23;;;14.80;99.90;;;;;;5077111;28;20539;-63
2024/02/17 12:16:58;;;;;;;7.53;6.30;;;15.00;99.90;;;;;;5078064;28;20451;-63
2024/02/17 12:19:26;;;;;;;6.70;6.10;;;15.10;99.90;;;;;;5084933;28;20477;-64
2024/02/17 12:21:54;;;;;;;8.70;6.37;;;15.20;99.90;;;;;;5068869;28;20460;-62
2024/02/17 12:24:21;;;;;;;6.80;6.20;;;15.30;99.90;;;;;;5065021;28;20451;-63
2024/02/17 12:26:51;;;;;;;5.23;4.73;;;15.40;99.90;;;;;;5076606;28;20458;-63
2024/02/17 12:29:18;;;;;;;4.40;3.00;;;15.50;99.90;;;;;;5075453;28;20471;-63
2024/02/17 12:31:46;;;;;;;4.40;3.90;;;15.60;99.90;;;;;;5074545;28;20456;-63
2024/02/17 12:34:27;;;;;;;3.87;3.30;;;15.90;99.90;;;;;;5072966;28;20451;-62
2024/02/17 12:36:54;;;;;;;4.53;3.33;;;16.10;99.90;;;;;;5085525;28;20451;-63
2024/02/17 12:39:24;;;;;;;3.70;3.40;;;16.00;99.90;;;;;;5076423;28;20475;-63
2024/02/17 12:42:01;;;;;;;3.37;3.07;;;15.90;99.90;;;;;;5072152;28;20475;-62
2024/02/17 12:44:28;;;;;;;4.30;3.93;;;15.70;99.90;;;;;;5063775;28;20446;-62
2024/02/17 12:46:55;;;;;;;4.80;4.50;;;15.40;99.90;;;;;;5069761;28;20937;-62